KDAY/DAY METAR and TAF weather

Enter ICAO airport designator
Station Type Date Time Source
KDAY METAR 2020/09/28 07:56 UTC NOAA

KDAY 280756Z 18007KT 10SM SCT045 BKN250 18/16 A2976 RMK AO2 SLP069 T01830156


Station Type Date Time Source
KDAY Decoded METAR 2020/09/28 07:56 UTC NOAA

COX DAYTON INTERNATIONAL, OH, United States (KDAY) 39-54N 084-13W 305M
Sep 28, 2020 - 03:56 AM EDT / 2020.09.28 0756 UTC
Wind: from the S (180 degrees) at 8 MPH (7 KT):0
Visibility: 10 mile(s):0
Sky conditions: mostly cloudy
Temperature: 64.9 F (18.3 C)
Dew Point: 60.1 F (15.6 C)
Relative Humidity: 84%
Pressure (altimeter): 29.76 in. Hg (1007 hPa)
ob: KDAY 280756Z 18007KT 10SM SCT045 BKN250 18/16 A2976 RMK AO2 SLP069 T01830156
cycle: 8

Station Type Date Time Source
KDAY TAF 2020/09/28 06:30 UTC NOAA

TAF KDAY 280528Z 2806/2906 20008KT P6SM SCT250
FM280900 19007KT P6SM BKN050
FM281400 19010KT P6SM VCSH BKN025 BKN050
FM281600 21012G20KT 5SM -SHRA OVC022
FM281800 24014G22KT 4SM SHRA BR OVC012
FM282100 29014G22KT P6SM VCSH OVC012
FM290000 28008KT P6SM SCT025 BKN050
AMD NOT SKED 2806/2809

Example: see airport list